createdAt,value
2019-05-20T00:00:21.495Z,98848.59
2019-05-20T00:00:57.567Z,98845.27
2019-05-20T00:01:34.255Z,98842.55
2019-05-20T00:02:23.078Z,98848.38
2019-05-20T00:02:48.277Z,98839.95
2019-05-20T00:03:24.875Z,98840.67
2019-05-20T00:04:01.819Z,98842.34
2019-05-20T00:04:38.244Z,98844.68
2019-05-20T00:05:14.256Z,98841.36
2019-05-20T00:05:50.790Z,98842.34
2019-05-20T00:06:26.359Z,98845.98
2019-05-20T00:07:02.984Z,98842.19
2019-05-20T00:07:39.704Z,98847.63
2019-05-20T00:08:16.110Z,98849.52
2019-05-20T00:08:53.643Z,98840.89
2019-05-20T00:09:30.100Z,98844.06
2019-05-20T00:10:06.108Z,98858.88
2019-05-20T00:10:42.598Z,98849.41
2019-05-20T00:11:18.974Z,98849.31
2019-05-20T00:11:55.626Z,98847.28
2019-05-20T00:12:32.138Z,98851.91
2019-05-20T00:13:09.085Z,98842.08
2019-05-20T00:13:44.532Z,98843.64
2019-05-20T00:14:20.632Z,98844.80
2019-05-20T00:14:57.331Z,98849.69
2019-05-20T00:15:33.463Z,98844.61
2019-05-20T00:16:10.341Z,98845.69
2019-05-20T00:16:46.926Z,98852.88
2019-05-20T00:17:22.418Z,98851.00
2019-05-20T00:17:58.554Z,98853.03
2019-05-20T00:18:35.197Z,98853.62
2019-05-20T00:19:11.629Z,98851.38
2019-05-20T00:19:50.665Z,98843.36
2019-05-20T00:20:26.565Z,98849.72
2019-05-20T00:21:02.932Z,98843.48
2019-05-20T00:21:39.376Z,98846.34
2019-05-20T00:22:15.738Z,98839.59
2019-05-20T00:22:51.761Z,98846.23
2019-05-20T00:23:27.735Z,98844.78
2019-05-20T00:24:04.092Z,98842.53
2019-05-20T00:24:40.788Z,98845.70
2019-05-20T00:25:17.717Z,98839.41
2019-05-20T00:25:54.592Z,98839.30
2019-05-20T00:26:30.058Z,98841.44
2019-05-20T00:27:06.994Z,98843.56
2019-05-20T00:27:43.924Z,98838.85
2019-05-20T00:28:19.499Z,98836.36
2019-05-20T00:28:55.719Z,98836.13
2019-05-20T00:29:32.763Z,98840.50
2019-05-20T00:30:09.153Z,98835.15
2019-05-20T00:30:45.157Z,98828.06
2019-05-20T00:31:21.554Z,98831.02
2019-05-20T00:31:58.053Z,98834.81
2019-05-20T00:32:41.106Z,98825.56
2019-05-20T00:33:13.982Z,98834.45
2019-05-20T00:33:50.414Z,98829.72
2019-05-20T00:34:34.607Z,98832.79
2019-05-20T00:35:04.293Z,98828.78
2019-05-20T00:35:39.725Z,98827.48
2019-05-20T00:36:15.723Z,98835.62
2019-05-20T00:36:51.784Z,98830.31
2019-05-20T00:37:27.225Z,98830.20
2019-05-20T00:38:03.352Z,98830.47
2019-05-20T00:38:39.961Z,98831.40
2019-05-20T00:39:21.779Z,98838.48
2019-05-20T00:39:57.910Z,98833.65
2019-05-20T00:40:34.286Z,98834.95
2019-05-20T00:41:10.661Z,98837.66
2019-05-20T00:41:47.599Z,98838.73
2019-05-20T00:42:24.182Z,98837.80
2019-05-20T00:43:00.027Z,98837.90
2019-05-20T00:43:36.648Z,98836.23
2019-05-20T00:44:13.023Z,98834.58
2019-05-20T00:44:48.453Z,98825.22
2019-05-20T00:45:25.038Z,98828.65
2019-05-20T00:46:02.154Z,98827.34
2019-05-20T00:46:38.270Z,98834.68
2019-05-20T00:47:14.314Z,98828.42
2019-05-20T00:47:50.310Z,98829.00
2019-05-20T00:48:26.805Z,98829.36
2019-05-20T00:49:03.504Z,98827.91
2019-05-20T00:49:40.097Z,98829.10
2019-05-20T00:50:15.656Z,98827.48
2019-05-20T00:50:52.684Z,98825.22
2019-05-20T00:51:28.990Z,98829.12
2019-05-20T00:52:05.256Z,98829.25
2019-05-20T00:52:42.209Z,98824.42
2019-05-20T00:53:18.775Z,98826.66
2019-05-20T00:53:55.109Z,98825.83
2019-05-20T00:54:31.156Z,98822.50
2019-05-20T00:55:08.276Z,98824.27
2019-05-20T00:55:44.719Z,98821.66
2019-05-20T00:56:21.034Z,98818.23
2019-05-20T00:56:57.084Z,98820.83
2019-05-20T00:57:33.284Z,98821.77
2019-05-20T00:58:10.070Z,98822.98
2019-05-20T00:58:46.071Z,98821.45
2019-05-20T00:59:22.218Z,98820.83
2019-05-20T00:59:59.089Z,98819.90
2019-05-20T01:00:35.212Z,98821.09
2019-05-20T01:01:11.388Z,98822.50
2019-05-20T01:01:48.361Z,98821.41
2019-05-20T01:02:24.427Z,98820.81
2019-05-20T01:03:00.963Z,98826.03
2019-05-20T01:03:37.384Z,98824.00
2019-05-20T01:04:13.388Z,98820.47
2019-05-20T01:04:49.429Z,98821.66
2019-05-20T01:05:26.481Z,98817.64
2019-05-20T01:06:03.104Z,98813.14
2019-05-20T01:06:39.393Z,98815.74
2019-05-20T01:07:16.268Z,98816.11
2019-05-20T01:07:52.689Z,98815.05
2019-05-20T01:08:28.386Z,98811.36
2019-05-20T01:09:07.273Z,98809.84
2019-05-20T01:09:44.446Z,98816.57
2019-05-20T01:10:20.188Z,98811.72
2019-05-20T01:10:57.503Z,98810.91
2019-05-20T01:11:34.225Z,98811.37
2019-05-20T01:12:10.263Z,98810.80
2019-05-20T01:12:47.151Z,98810.17
2019-05-20T01:13:24.028Z,98812.30
2019-05-20T01:13:59.552Z,98811.09
2019-05-20T01:14:35.932Z,98811.80
2019-05-20T01:15:12.264Z,98811.55
2019-05-20T01:15:48.400Z,98812.64
2019-05-20T01:16:24.419Z,98809.31
2019-05-20T01:17:00.730Z,98809.42
2019-05-20T01:17:36.828Z,98813.55
2019-05-20T01:18:13.194Z,98815.91
2019-05-20T01:18:49.282Z,98814.13
2019-05-20T01:19:25.294Z,98816.73
2019-05-20T01:20:01.353Z,98813.77
2019-05-20T01:20:38.325Z,98817.66
2019-05-20T01:21:14.352Z,98818.13
2019-05-20T01:21:50.358Z,98813.88
2019-05-20T01:22:27.032Z,98819.06
2019-05-20T01:23:03.628Z,98820.73
2019-05-20T01:23:39.627Z,98816.11
2019-05-20T01:24:15.624Z,98819.90
2019-05-20T01:24:51.720Z,98822.03
2019-05-20T01:25:28.407Z,98818.23
2019-05-20T01:26:04.433Z,98815.89
2019-05-20T01:26:40.564Z,98818.30
2019-05-20T01:27:16.610Z,98815.47
2019-05-20T01:27:52.968Z,98818.42
2019-05-20T01:28:29.599Z,98813.11
2019-05-20T01:29:07.013Z,98812.75
2019-05-20T01:29:43.583Z,98813.42
2019-05-20T01:30:21.050Z,98814.72
2019-05-20T01:30:58.058Z,98814.36
2019-05-20T01:31:34.478Z,98811.76
2019-05-20T01:32:10.506Z,98816.95
2019-05-20T01:32:47.132Z,98817.92
2019-05-20T01:33:23.714Z,98809.97
2019-05-20T01:34:00.156Z,98810.08
2019-05-20T01:34:37.129Z,98815.74
2019-05-20T01:35:14.588Z,98813.38
2019-05-20T01:35:50.593Z,98814.68
2019-05-20T01:36:27.481Z,98816.45
2019-05-20T01:37:04.121Z,98812.45
2019-05-20T01:37:40.243Z,98815.05
2019-05-20T01:38:16.825Z,98813.69
2019-05-20T01:38:53.733Z,98814.16
2019-05-20T01:39:30.000Z,98811.91
2019-05-20T01:40:06.526Z,98809.17
2019-05-20T01:40:42.646Z,98810.19
2019-05-20T01:41:18.806Z,98808.42
2019-05-20T01:41:55.713Z,98806.89
2019-05-20T01:42:32.499Z,98811.48
2019-05-20T01:43:08.577Z,98807.33
2019-05-20T01:43:44.599Z,98808.27
2019-05-20T01:44:21.203Z,98806.58
2019-05-20T01:44:57.745Z,98805.48
2019-05-20T01:45:34.150Z,98806.28
2019-05-20T01:46:11.087Z,98804.72
2019-05-20T01:46:46.553Z,98810.17
2019-05-20T01:47:22.574Z,98811.97
2019-05-20T01:47:58.670Z,98809.51
2019-05-20T01:48:34.789Z,98805.11
2019-05-20T01:49:11.859Z,98806.08
2019-05-20T01:49:48.727Z,98807.38
2019-05-20T01:50:25.488Z,98805.45
2019-05-20T01:51:01.937Z,98809.24
2019-05-20T01:51:38.564Z,98809.24
2019-05-20T01:52:14.037Z,98805.84
2019-05-20T01:52:50.622Z,98811.50
2019-05-20T01:53:27.109Z,98809.01
2019-05-20T01:54:02.608Z,98801.72
2019-05-20T01:54:39.029Z,98804.88
2019-05-20T01:55:15.659Z,98798.23
2019-05-20T01:55:51.460Z,98801.89
2019-05-20T01:56:27.503Z,98802.36
2019-05-20T01:57:04.155Z,98803.86
2019-05-20T01:57:39.592Z,98802.56
2019-05-20T01:58:15.761Z,98802.30
2019-05-20T01:58:52.250Z,98799.67
2019-05-20T01:59:28.393Z,98802.36
2019-05-20T02:00:06.580Z,98799.67
2019-05-20T02:00:43.180Z,98801.53
2019-05-20T02:01:19.026Z,98793.67
2019-05-20T02:01:55.112Z,98800.97
2019-05-20T02:02:31.301Z,98805.28
2019-05-20T02:03:07.485Z,98801.27
2019-05-20T02:03:43.936Z,98795.84
2019-05-20T02:04:20.554Z,98797.14
2019-05-20T02:04:57.140Z,98803.25
2019-05-20T02:05:34.116Z,98798.44
2019-05-20T02:06:10.138Z,98798.90
2019-05-20T02:06:46.469Z,98795.51
2019-05-20T02:07:23.091Z,98792.95
2019-05-20T02:07:59.395Z,98794.70
2019-05-20T02:08:34.955Z,98795.31
2019-05-20T02:09:11.388Z,98793.55
2019-05-20T02:09:48.000Z,98786.98
2019-05-20T02:10:23.653Z,98793.61
2019-05-20T02:11:00.490Z,98792.88
2019-05-20T02:11:36.514Z,98787.13
2019-05-20T02:12:12.880Z,98790.84
2019-05-20T02:12:48.937Z,98794.27
2019-05-20T02:13:27.370Z,98789.18
2019-05-20T02:14:07.480Z,98789.18
2019-05-20T02:14:49.926Z,98792.47
2019-05-20T02:15:34.424Z,98797.43
2019-05-20T02:16:10.821Z,98797.00
2019-05-20T02:16:47.129Z,98799.86
2019-05-20T02:17:23.135Z,98799.27
2019-05-20T02:17:58.680Z,98794.00
2019-05-20T02:18:35.039Z,98803.45
2019-05-20T02:19:11.391Z,98806.78
2019-05-20T02:19:46.854Z,98808.08
2019-05-20T02:20:22.855Z,98803.63
2019-05-20T02:20:59.280Z,98801.49
2019-05-20T02:21:35.653Z,98802.69
2019-05-20T02:22:11.656Z,98801.49
2019-05-20T02:22:48.739Z,98804.66
2019-05-20T02:23:24.715Z,98802.33
2019-05-20T02:24:00.770Z,98799.93
2019-05-20T02:24:36.778Z,98801.27
2019-05-20T02:25:13.133Z,98795.70
2019-05-20T02:25:50.367Z,98795.17
2019-05-20T02:26:27.016Z,98797.77
2019-05-20T02:27:02.587Z,98799.91
2019-05-20T02:27:40.326Z,98796.47
2019-05-20T02:28:17.079Z,98795.17
2019-05-20T02:28:53.223Z,98796.14
2019-05-20T02:29:29.649Z,98791.55
2019-05-20T02:30:06.328Z,98792.95
2019-05-20T02:30:42.543Z,98796.64
2019-05-20T02:31:18.573Z,98792.75
2019-05-20T02:31:55.217Z,98799.80
2019-05-20T02:32:30.718Z,98801.09
2019-05-20T02:33:07.352Z,98792.75
2019-05-20T02:33:51.701Z,98795.73
2019-05-20T02:34:22.742Z,98792.81
2019-05-20T02:34:59.839Z,98791.41
2019-05-20T02:35:36.350Z,98791.08
2019-05-20T02:36:12.737Z,98796.50
2019-05-20T02:36:48.733Z,98794.27
2019-05-20T02:37:26.027Z,98790.95
2019-05-20T02:38:01.752Z,98788.55
2019-05-20T02:38:37.728Z,98794.20
2019-05-20T02:39:14.377Z,98789.72
2019-05-20T02:39:50.780Z,98788.85
2019-05-20T02:40:27.563Z,98793.51
2019-05-20T02:41:04.683Z,98789.15
2019-05-20T02:41:40.773Z,98790.58
2019-05-20T02:42:16.777Z,98791.88
2019-05-20T02:42:53.720Z,98794.44
2019-05-20T02:43:30.141Z,98758.47
2019-05-20T02:44:06.406Z,98793.31
2019-05-20T02:44:42.406Z,98791.55
2019-05-20T02:45:18.175Z,98801.56
2019-05-20T02:45:54.823Z,98801.47
2019-05-20T02:46:31.057Z,98797.07
2019-05-20T02:47:06.829Z,98799.77
2019-05-20T02:47:43.962Z,98801.66
2019-05-20T02:48:19.951Z,98806.13
2019-05-20T02:48:55.885Z,98800.73
2019-05-20T02:49:31.972Z,98806.86
2019-05-20T02:50:08.418Z,98802.16
2019-05-20T02:50:44.904Z,98801.93
2019-05-20T02:51:31.724Z,98799.80
2019-05-20T02:52:07.740Z,98801.56
2019-05-20T02:52:44.254Z,98802.30
2019-05-20T02:53:20.904Z,98798.80
2019-05-20T02:53:58.079Z,98796.47
2019-05-20T02:54:33.624Z,98799.56
2019-05-20T02:55:09.968Z,98794.84
2019-05-20T02:55:46.630Z,98797.70
2019-05-20T02:56:22.846Z,98791.31
2019-05-20T02:56:59.547Z,98794.41
2019-05-20T02:57:36.251Z,98795.70
2019-05-20T02:58:11.725Z,98796.56
2019-05-20T02:58:47.735Z,98797.53
2019-05-20T02:59:24.382Z,98797.99
2019-05-20T03:00:00.501Z,98796.06
2019-05-20T03:00:37.614Z,98803.02
2019-05-20T03:01:13.717Z,98799.83
2019-05-20T03:01:49.149Z,98801.83
2019-05-20T03:02:25.773Z,98796.04
2019-05-20T03:03:02.444Z,98801.12
2019-05-20T03:03:37.904Z,98806.78
2019-05-20T03:04:14.488Z,98805.13
2019-05-20T03:04:51.836Z,98799.20
2019-05-20T03:05:28.350Z,98798.17
2019-05-20T03:06:04.401Z,98801.96
2019-05-20T03:06:41.542Z,98800.43
2019-05-20T03:07:17.930Z,98796.53
2019-05-20T03:07:54.274Z,98803.19
2019-05-20T03:08:30.941Z,98803.39
2019-05-20T03:09:07.028Z,98811.18
2019-05-20T03:09:43.044Z,98807.55
2019-05-20T03:10:19.356Z,98801.99
2019-05-20T03:10:55.515Z,98803.86
2019-05-20T03:11:32.318Z,98801.53
2019-05-20T03:12:08.763Z,98803.75
2019-05-20T03:12:44.204Z,98800.80
2019-05-20T03:13:20.230Z,98802.09
2019-05-20T03:13:56.989Z,98808.95
2019-05-20T03:14:32.545Z,98801.36
2019-05-20T03:15:08.988Z,98806.72
2019-05-20T03:15:45.009Z,98804.02
2019-05-20T03:16:21.104Z,98806.08
2019-05-20T03:16:57.597Z,98800.28
2019-05-20T03:17:33.637Z,98798.29
2019-05-20T03:18:09.720Z,98801.35
2019-05-20T03:18:45.682Z,98802.28
2019-05-20T03:19:21.683Z,98805.34
2019-05-20T03:19:57.240Z,98800.05
2019-05-20T03:20:33.330Z,98804.84
2019-05-20T03:21:09.466Z,98807.59
2019-05-20T03:21:45.489Z,98801.28
2019-05-20T03:22:22.476Z,98805.27
2019-05-20T03:22:59.123Z,98807.14
2019-05-20T03:23:35.861Z,98803.95
2019-05-20T03:24:12.441Z,98803.87
2019-05-20T03:24:49.089Z,98807.71
2019-05-20T03:25:24.534Z,98803.48
2019-05-20T03:26:00.707Z,98797.45
2019-05-20T03:26:36.815Z,98806.02
2019-05-20T03:27:12.276Z,98806.85
2019-05-20T03:27:49.280Z,98809.55
2019-05-20T03:28:25.887Z,98804.36
2019-05-20T03:29:01.405Z,98808.99
2019-05-20T03:29:38.074Z,98812.27
2019-05-20T03:30:14.589Z,98807.51
2019-05-20T03:30:50.301Z,98801.92
2019-05-20T03:31:26.924Z,98809.14
2019-05-20T03:32:03.961Z,98806.75
2019-05-20T03:32:39.600Z,98809.24
2019-05-20T03:33:16.179Z,98807.24
2019-05-20T03:33:52.270Z,98809.51
2019-05-20T03:34:45.269Z,98808.52
2019-05-20T03:35:07.799Z,98814.27
2019-05-20T03:35:44.248Z,98803.95
2019-05-20T03:36:19.667Z,98807.09
2019-05-20T03:36:56.075Z,98805.89
2019-05-20T03:37:33.339Z,98803.86
2019-05-20T03:38:08.842Z,98801.96
2019-05-20T03:38:45.281Z,98803.59
2019-05-20T03:39:21.886Z,98807.25
2019-05-20T03:39:57.461Z,98808.19
2019-05-20T03:40:33.893Z,98813.48
2019-05-20T03:41:10.362Z,98808.48
2019-05-20T03:41:46.387Z,98807.32
2019-05-20T03:42:23.128Z,98807.48
2019-05-20T03:42:59.498Z,98811.95
2019-05-20T03:43:35.362Z,98814.88
2019-05-20T03:44:11.976Z,98819.59
2019-05-20T03:44:48.031Z,98823.49
2019-05-20T03:45:23.789Z,98825.86
2019-05-20T03:46:00.439Z,98821.44
2019-05-20T03:46:37.086Z,98824.23
2019-05-20T03:47:12.903Z,98821.00
2019-05-20T03:47:49.283Z,98820.30
2019-05-20T03:48:25.462Z,98823.27
2019-05-20T03:49:01.008Z,98824.36
2019-05-20T03:49:37.375Z,98825.30
2019-05-20T03:50:13.943Z,98824.09
2019-05-20T03:50:49.398Z,98822.80
2019-05-20T03:51:25.524Z,98826.13
2019-05-20T03:52:01.559Z,98826.33
2019-05-20T03:52:37.354Z,98825.43
2019-05-20T03:53:13.736Z,98824.43
2019-05-20T03:53:50.584Z,98827.48
2019-05-20T03:54:26.390Z,98826.42
2019-05-20T03:55:02.506Z,98821.70
2019-05-20T03:55:39.485Z,98816.41
2019-05-20T03:56:14.930Z,98818.53
2019-05-20T03:56:51.519Z,98823.95
2019-05-20T03:57:27.637Z,98820.27
2019-05-20T03:58:03.199Z,98820.03
2019-05-20T03:58:39.183Z,98821.97
2019-05-20T03:59:15.188Z,98823.27
2019-05-20T03:59:51.303Z,98824.69
2019-05-20T04:00:45.189Z,98829.15
2019-05-20T04:01:22.113Z,98832.04
2019-05-20T04:01:57.928Z,98827.55
2019-05-20T04:02:34.587Z,98829.50
2019-05-20T04:03:10.614Z,98823.70
2019-05-20T04:03:46.078Z,98824.55
2019-05-20T04:04:24.976Z,98828.20
2019-05-20T04:05:02.774Z,98820.28
2019-05-20T04:05:39.161Z,98827.50
2019-05-20T04:06:15.779Z,98826.77
2019-05-20T04:06:52.378Z,98831.03
2019-05-20T04:07:28.995Z,98830.09
2019-05-20T04:08:05.042Z,98827.27
2019-05-20T04:08:41.395Z,98827.27
2019-05-20T04:09:17.469Z,98828.01
2019-05-20T04:09:54.468Z,98829.20
2019-05-20T04:10:30.534Z,98832.37
2019-05-20T04:11:06.039Z,98829.04
2019-05-20T04:11:42.449Z,98828.44
2019-05-20T04:12:18.447Z,98834.83
2019-05-20T04:12:53.883Z,98832.33
2019-05-20T04:13:34.495Z,98831.12
2019-05-20T04:14:08.215Z,98832.79
2019-05-20T04:14:43.640Z,98836.59
2019-05-20T04:15:20.275Z,98835.75
2019-05-20T04:15:56.599Z,98831.12
2019-05-20T04:16:32.122Z,98838.91
2019-05-20T04:17:08.158Z,98834.55
2019-05-20T04:17:44.539Z,98835.75
2019-05-20T04:18:20.002Z,98838.72
2019-05-20T04:18:58.921Z,98839.55
2019-05-20T04:19:35.612Z,98835.28
2019-05-20T04:20:11.309Z,98836.16
2019-05-20T04:20:47.324Z,98837.55
2019-05-20T04:21:23.336Z,98839.05
2019-05-20T04:21:59.476Z,98836.26
2019-05-20T04:22:35.506Z,98835.23
2019-05-20T04:23:11.867Z,98835.70
2019-05-20T04:23:47.887Z,98837.00
2019-05-20T04:24:23.885Z,98837.46
2019-05-20T04:24:59.989Z,98841.30
2019-05-20T04:25:35.862Z,98841.66
2019-05-20T04:26:11.895Z,98833.23
2019-05-20T04:26:49.343Z,98839.36
2019-05-20T04:27:25.425Z,98840.79
2019-05-20T04:28:02.542Z,98836.06
2019-05-20T04:28:38.567Z,98836.06
2019-05-20T04:29:14.804Z,98835.00
2019-05-20T04:29:50.881Z,98835.00
2019-05-20T04:30:26.989Z,98837.40
2019-05-20T04:31:02.498Z,98832.11
2019-05-20T04:31:38.624Z,98832.11
2019-05-20T04:32:14.627Z,98832.48
2019-05-20T04:32:51.315Z,98826.33
2019-05-20T04:33:27.356Z,98831.41
2019-05-20T04:34:03.707Z,98832.81
2019-05-20T04:34:40.466Z,98834.87
2019-05-20T04:35:21.878Z,98829.63
2019-05-20T04:35:54.219Z,98821.56
2019-05-20T04:36:30.229Z,98826.49
2019-05-20T04:37:06.250Z,98824.36
2019-05-20T04:37:42.227Z,98827.81
2019-05-20T04:38:18.009Z,98823.48
2019-05-20T04:38:58.579Z,98822.45
2019-05-20T04:39:34.606Z,98817.56
2019-05-20T04:40:10.869Z,98822.55
2019-05-20T04:40:46.884Z,98823.25
2019-05-20T04:41:23.364Z,98823.92
2019-05-20T04:41:59.543Z,98814.37
2019-05-20T04:42:35.521Z,98818.06
2019-05-20T04:43:11.885Z,98819.09
2019-05-20T04:43:47.327Z,98827.09
2019-05-20T04:44:23.315Z,98817.16
2019-05-20T04:44:59.794Z,98817.16
2019-05-20T04:45:36.500Z,98815.86
2019-05-20T04:46:13.000Z,98816.52
2019-05-20T04:46:49.385Z,98809.77
2019-05-20T04:47:25.234Z,98825.61
2019-05-20T04:48:01.238Z,98812.19
2019-05-20T04:48:38.788Z,98822.50
2019-05-20T04:49:14.275Z,98821.72
2019-05-20T04:49:50.664Z,98813.85
2019-05-20T04:50:26.706Z,98813.28
2019-05-20T04:51:02.594Z,98818.89
2019-05-20T04:51:39.022Z,98817.26
2019-05-20T04:52:15.386Z,98817.02
2019-05-20T04:52:51.424Z,98816.70
2019-05-20T04:53:28.427Z,98821.08
2019-05-20T04:54:04.453Z,98820.70
2019-05-20T04:54:40.739Z,98820.20
2019-05-20T04:55:17.464Z,98818.16
2019-05-20T04:55:54.087Z,98822.38
2019-05-20T04:56:29.653Z,98823.31
2019-05-20T04:57:06.630Z,98818.59
2019-05-20T04:57:42.910Z,98823.61
2019-05-20T04:58:18.470Z,98827.25
2019-05-20T04:58:54.450Z,98822.56
2019-05-20T04:59:31.339Z,98820.08
2019-05-20T05:00:07.594Z,98817.47
2019-05-20T05:00:55.283Z,98821.35
2019-05-20T05:01:31.658Z,98833.83
2019-05-20T05:02:07.585Z,98830.55
2019-05-20T05:02:44.098Z,98827.23
2019-05-20T05:03:20.515Z,98827.99
2019-05-20T05:03:55.975Z,98823.31
2019-05-20T05:04:32.117Z,98837.05
2019-05-20T05:05:08.754Z,98834.83
2019-05-20T05:05:44.588Z,98834.92
2019-05-20T05:06:21.610Z,98835.86
2019-05-20T05:06:57.670Z,98834.56
2019-05-20T05:07:33.620Z,98838.16
2019-05-20T05:08:10.865Z,98841.89
2019-05-20T05:08:47.236Z,98837.41
2019-05-20T05:09:22.711Z,98833.16
2019-05-20T05:09:59.136Z,98840.98
2019-05-20T05:10:36.118Z,98837.33
2019-05-20T05:11:11.944Z,98840.41
2019-05-20T05:11:48.887Z,98843.85
2019-05-20T05:12:25.495Z,98839.74
2019-05-20T05:13:02.101Z,98840.31
2019-05-20T05:13:38.573Z,98833.53
2019-05-20T05:14:15.843Z,98836.34
2019-05-20T05:14:51.414Z,98833.74
2019-05-20T05:15:28.549Z,98838.73
2019-05-20T05:16:04.848Z,98842.35
2019-05-20T05:16:41.661Z,98838.75
2019-05-20T05:17:18.297Z,98841.36
2019-05-20T05:17:54.619Z,98842.70
2019-05-20T05:18:30.515Z,98841.88
2019-05-20T05:19:06.991Z,98839.73
2019-05-20T05:19:44.135Z,98837.17
2019-05-20T05:20:19.651Z,98840.14
2019-05-20T05:20:56.791Z,98840.76
2019-05-20T05:21:33.689Z,98842.16
2019-05-20T05:22:09.170Z,98846.38
2019-05-20T05:22:45.795Z,98840.41
2019-05-20T05:23:22.345Z,98841.72
2019-05-20T05:23:59.502Z,98838.55
2019-05-20T05:24:36.757Z,98841.27
2019-05-20T05:25:14.119Z,98840.47
2019-05-20T05:25:50.611Z,98846.34
2019-05-20T05:26:26.701Z,98841.09
2019-05-20T05:27:03.508Z,98838.49
2019-05-20T05:27:39.971Z,98840.78
2019-05-20T05:28:16.419Z,98841.04
2019-05-20T05:28:52.781Z,98836.51
2019-05-20T05:29:29.054Z,98833.55
2019-05-20T05:30:06.059Z,98843.49
2019-05-20T05:30:43.680Z,98834.94
2019-05-20T05:31:19.737Z,98834.75
2019-05-20T05:31:56.837Z,98837.61
2019-05-20T05:32:43.003Z,98838.77
2019-05-20T05:33:19.333Z,98834.96
2019-05-20T05:33:55.951Z,98833.33
2019-05-20T05:34:33.070Z,98832.26
2019-05-20T05:35:09.880Z,98832.15
2019-05-20T05:35:53.258Z,98836.52
2019-05-20T05:36:23.674Z,98838.20
2019-05-20T05:37:00.176Z,98834.73
2019-05-20T05:37:37.170Z,98841.44
2019-05-20T05:38:13.299Z,98835.77
2019-05-20T05:38:49.756Z,98839.92
2019-05-20T05:39:25.870Z,98844.20
2019-05-20T05:40:02.506Z,98845.91
2019-05-20T05:40:38.594Z,98840.61
2019-05-20T05:41:15.242Z,98846.84
2019-05-20T05:41:51.305Z,98842.62
2019-05-20T05:42:26.878Z,98843.78
2019-05-20T05:43:03.549Z,98857.16
2019-05-20T05:43:39.539Z,98850.46
2019-05-20T05:44:15.979Z,98850.36
2019-05-20T05:44:52.044Z,98854.83
2019-05-20T05:45:33.107Z,98851.13
2019-05-20T05:46:09.262Z,98852.58
2019-05-20T05:46:46.183Z,98853.20
2019-05-20T05:47:22.831Z,98850.05
2019-05-20T05:47:58.363Z,98847.06
2019-05-20T05:48:34.444Z,98851.90
2019-05-20T05:49:11.762Z,98849.63
2019-05-20T05:49:47.652Z,98851.86
2019-05-20T05:50:23.647Z,98849.22
2019-05-20T05:51:00.346Z,98849.77
2019-05-20T05:51:35.833Z,98850.83
2019-05-20T05:52:12.859Z,98854.52
2019-05-20T05:52:49.813Z,98850.13
2019-05-20T05:53:25.855Z,98846.84
2019-05-20T05:54:02.414Z,98852.65
2019-05-20T05:54:38.484Z,98855.08
2019-05-20T05:55:14.324Z,98849.50
2019-05-20T05:55:50.391Z,98853.88
2019-05-20T05:56:26.722Z,98856.84
2019-05-20T05:57:02.420Z,98855.92
2019-05-20T05:57:39.412Z,98857.88
2019-05-20T05:58:16.486Z,98859.63
2019-05-20T05:58:51.926Z,98855.56
2019-05-20T05:59:29.007Z,98856.27
2019-05-20T06:00:05.647Z,98856.17
2019-05-20T06:00:41.737Z,98855.92
2019-05-20T06:01:17.729Z,98858.98
2019-05-20T06:01:54.764Z,98858.62
2019-05-20T06:02:30.489Z,98860.09
2019-05-20T06:03:07.828Z,98859.61
2019-05-20T06:03:44.773Z,98858.61
2019-05-20T06:04:21.130Z,98864.84
2019-05-20T06:04:57.173Z,98862.80
2019-05-20T06:05:33.870Z,98858.88
2019-05-20T06:06:12.850Z,98864.87
2019-05-20T06:06:48.154Z,98863.45
2019-05-20T06:07:24.611Z,98867.64
2019-05-20T06:08:00.153Z,98857.02
2019-05-20T06:08:36.246Z,98866.37
2019-05-20T06:09:12.328Z,98867.79
2019-05-20T06:09:47.851Z,98865.08
2019-05-20T06:10:24.333Z,98860.55
2019-05-20T06:11:00.390Z,98865.70
2019-05-20T06:11:36.196Z,98864.62
2019-05-20T06:12:12.852Z,98866.17
2019-05-20T06:12:48.875Z,98866.16
2019-05-20T06:13:25.030Z,98865.91
2019-05-20T06:14:01.152Z,98867.83
2019-05-20T06:14:37.278Z,98872.82
2019-05-20T06:15:13.601Z,98871.55
2019-05-20T06:15:49.705Z,98865.97
2019-05-20T06:16:35.810Z,98870.59
2019-05-20T06:17:04.039Z,98871.43
2019-05-20T06:17:40.845Z,98865.75
2019-05-20T06:18:17.436Z,98871.30
2019-05-20T06:18:52.866Z,98868.11
2019-05-20T06:19:29.388Z,98873.78
2019-05-20T06:20:05.959Z,98867.63
2019-05-20T06:20:41.847Z,98870.70
2019-05-20T06:21:18.822Z,98874.73
2019-05-20T06:21:55.433Z,98879.37
2019-05-20T06:22:30.998Z,98876.86
2019-05-20T06:23:07.028Z,98881.23
2019-05-20T06:23:43.058Z,98878.17
2019-05-20T06:24:18.836Z,98880.18
2019-05-20T06:24:55.527Z,98880.64
2019-05-20T06:25:31.848Z,98885.03
2019-05-20T06:26:07.778Z,98883.61
2019-05-20T06:26:44.344Z,98884.67
2019-05-20T06:27:20.480Z,98880.53
2019-05-20T06:27:56.403Z,98877.94
2019-05-20T06:28:32.476Z,98883.38
2019-05-20T06:29:09.558Z,98879.85
2019-05-20T06:29:46.274Z,98876.86
2019-05-20T06:30:26.332Z,98880.97
2019-05-20T06:31:02.690Z,98873.25
2019-05-20T06:31:38.594Z,98878.14
2019-05-20T06:32:14.773Z,98882.21
2019-05-20T06:32:50.901Z,98886.09
2019-05-20T06:33:26.971Z,98890.17
2019-05-20T06:34:03.075Z,98891.78
2019-05-20T06:34:42.159Z,98886.81
2019-05-20T06:35:16.834Z,98887.65
2019-05-20T06:35:52.846Z,98884.58
2019-05-20T06:36:28.941Z,98883.28
2019-05-20T06:37:06.747Z,98888.98
2019-05-20T06:37:45.977Z,98887.41
2019-05-20T06:38:45.382Z,98881.36
2019-05-20T06:39:21.207Z,98888.81
2019-05-20T06:39:57.544Z,98879.83
2019-05-20T06:40:33.907Z,98894.76
2019-05-20T06:41:09.430Z,98883.89
2019-05-20T06:41:46.048Z,98887.05
2019-05-20T06:42:22.096Z,98885.98
2019-05-20T06:42:57.579Z,98871.09
2019-05-20T06:43:33.713Z,98883.39
2019-05-20T06:44:10.859Z,98886.11
2019-05-20T06:44:53.077Z,98890.38
2019-05-20T06:45:24.042Z,98885.04
2019-05-20T06:46:01.136Z,98882.59
2019-05-20T06:46:36.638Z,98888.61
2019-05-20T06:47:12.767Z,98896.34
2019-05-20T06:47:49.405Z,98887.06
2019-05-20T06:48:25.279Z,98882.92
2019-05-20T06:49:01.351Z,98889.98
2019-05-20T06:49:38.399Z,98892.19
2019-05-20T06:50:13.852Z,98889.02
2019-05-20T06:50:50.526Z,98886.33
2019-05-20T06:51:26.977Z,98886.55
2019-05-20T06:52:02.481Z,98886.81
2019-05-20T06:52:39.186Z,98886.05
2019-05-20T06:53:15.773Z,98882.92
2019-05-20T06:53:52.208Z,98886.75
2019-05-20T06:54:28.880Z,98880.75
2019-05-20T06:55:07.070Z,98888.75
2019-05-20T06:55:42.478Z,98885.63
2019-05-20T06:56:19.525Z,98883.75
2019-05-20T06:56:56.360Z,98882.30
2019-05-20T06:57:32.961Z,98883.22
2019-05-20T06:58:09.032Z,98885.61
2019-05-20T06:58:45.079Z,98884.56
2019-05-20T06:59:20.919Z,98881.72
2019-05-20T06:59:57.366Z,98888.68
2019-05-20T07:00:36.230Z,98887.25
2019-05-20T07:01:12.494Z,98888.67
2019-05-20T07:01:48.522Z,98889.98
2019-05-20T07:02:24.638Z,98884.69
2019-05-20T07:03:00.379Z,98884.64
2019-05-20T07:03:36.634Z,98892.94
2019-05-20T07:04:13.261Z,98889.23
2019-05-20T07:04:49.432Z,98893.47
2019-05-20T07:05:26.453Z,98882.56
2019-05-20T07:06:03.089Z,98895.16
2019-05-20T07:06:46.887Z,98900.87
2019-05-20T07:07:20.802Z,98895.47
2019-05-20T07:07:55.262Z,98891.06
2019-05-20T07:08:31.791Z,98893.09
2019-05-20T07:09:08.669Z,98893.88